Time;durP1;ratioP1;P1;durP2;ratioP2;P2;SDS_P1;SDS_P2;PMS_P1;PMS_P2;Temp;Humidity;BMP_temperature;BMP_pressure;BME280_temperature;BME280_humidity;BME280_pressure;Samples;Min_cycle;Max_cycle;Signal;HPM_P1;HPM_P2
2023/08/25 00:00:30;;;;;;;19.17;9.98;;;;;;;26.79;42.62;99982.64;1768431;81;21373;-77
2023/08/25 00:03:37;;;;;;;23.70;9.48;;;;;;;26.71;42.94;99983.52;1769411;81;21293;-78
2023/08/25 00:06:43;;;;;;;30.12;9.93;;;;;;;26.83;42.93;99987.38;1769558;81;21320;-78
2023/08/25 00:09:51;;;;;;;18.50;9.80;;;;;;;27.03;42.62;99990.58;1768871;81;21337;-78
2023/08/25 00:12:57;;;;;;;15.58;8.83;;;;;;;26.84;42.91;99989.61;1767963;81;21308;-78
2023/08/25 00:16:04;;;;;;;28.35;8.35;;;;;;;26.51;43.97;99986.46;1769659;81;21336;-78
2023/08/25 00:19:14;;;;;;;35.05;9.75;;;;;;;26.55;44.36;99986.16;1769361;81;22031;-78
2023/08/25 00:22:19;;;;;;;31.15;8.60;;;;;;;26.60;44.65;99986.13;1769308;81;21887;-78
2023/08/25 00:25:26;;;;;;;20.85;8.85;;;;;;;26.73;44.48;99988.28;1769630;81;21869;-77
2023/08/25 00:28:31;;;;;;;24.40;8.88;;;;;;;26.92;44.45;99987.59;1769652;81;21867;-77
2023/08/25 00:31:37;;;;;;;22.02;9.78;;;;;;;26.88;44.82;99986.50;1769734;81;21648;-77
2023/08/25 00:34:43;;;;;;;20.68;10.43;;;;;;;26.81;45.30;99992.42;1768903;81;21341;-77
2023/08/25 00:37:49;;;;;;;27.77;10.32;;;;;;;26.63;46.00;99992.56;1769048;81;21349;-77
2023/08/25 00:40:57;;;;;;;21.82;9.78;;;;;;;26.81;46.07;99989.61;1768545;81;21619;-78
2023/08/25 00:44:03;;;;;;;23.25;11.05;;;;;;;26.75;46.46;99990.78;1769647;81;21626;-78
2023/08/25 00:47:09;;;;;;;30.65;11.35;;;;;;;26.83;46.42;99990.17;1769410;81;21286;-78
2023/08/25 00:50:16;;;;;;;21.97;9.35;;;;;;;26.68;46.80;99991.70;1769002;81;21361;-78
2023/08/25 00:53:21;;;;;;;19.77;9.80;;;;;;;26.60;46.89;99991.73;1769392;81;21303;-78
2023/08/25 00:56:27;;;;;;;17.70;8.93;;;;;;;26.67;46.49;99993.63;1769738;81;21293;-78
2023/08/25 00:59:33;;;;;;;22.90;10.48;;;;;;;26.48;46.79;99993.47;1769632;81;21325;-77
2023/08/25 01:02:39;;;;;;;19.30;9.93;;;;;;;26.44;46.94;99998.55;1769459;81;21225;-78
2023/08/25 01:05:48;;;;;;;16.82;9.05;;;;;;;26.69;46.37;99998.41;1769822;81;21874;-78
2023/08/25 01:08:54;;;;;;;19.52;9.60;;;;;;;26.63;46.38;100003.78;1769913;81;21315;-78
2023/08/25 01:12:12;;;;;;;18.42;8.63;;;;;;;26.66;45.95;100003.75;1769790;81;21393;-78
2023/08/25 01:15:26;;;;;;;17.27;8.80;;;;;;;26.79;45.59;100001.70;1769752;81;21874;-78
2023/08/25 01:18:35;;;;;;;21.75;9.08;;;;;;;27.02;44.86;99994.52;1785561;79;21220;-78
2023/08/25 01:21:42;;;;;;;20.05;8.93;;;;;;;27.05;44.72;99998.12;1800012;79;21307;-78
2023/08/25 01:24:50;;;;;;;22.50;8.68;;;;;;;27.18;44.31;100000.30;1732849;82;21870;-78
2023/08/25 01:27:56;;;;;;;12.23;7.30;;;;;;;27.19;44.10;100000.56;1801506;79;21300;-79
2023/08/25 01:31:01;;;;;;;17.52;7.35;;;;;;;27.10;44.19;99991.66;1732411;82;21351;-78
2023/08/25 01:34:07;;;;;;;12.43;6.95;;;;;;;27.08;44.21;99993.91;1775351;79;21350;-78
2023/08/25 01:37:26;;;;;;;11.18;6.92;;;;;;;27.06;44.32;99989.17;1780945;80;21315;-78
2023/08/25 01:40:43;;;;;;;15.83;7.25;;;;;;;27.14;44.16;99996.39;1783123;80;21173;-77
2023/08/25 01:43:56;;;;;;;16.95;6.95;;;;;;;27.23;44.16;99993.80;1780070;80;21306;-78
2023/08/25 01:47:08;;;;;;;15.35;6.58;;;;;;;27.09;44.53;99997.02;1710817;83;21342;-78
2023/08/25 01:50:15;;;;;;;9.48;5.85;;;;;;;27.11;44.35;99988.59;1682252;85;21236;-77
2023/08/25 01:53:22;;;;;;;12.25;6.25;;;;;;;27.01;44.41;99995.66;1712025;83;21370;-77
2023/08/25 01:56:27;;;;;;;12.25;6.03;;;;;;;27.13;44.02;99997.53;1690343;83;21383;-77
2023/08/25 01:59:32;;;;;;;16.90;5.67;;;;;;;27.09;43.81;99999.81;1707814;83;21308;-78
2023/08/25 02:02:37;;;;;;;10.88;5.53;;;;;;;27.12;43.48;99997.27;1709616;83;21873;-77
2023/08/25 02:05:43;;;;;;;9.15;6.03;;;;;;;26.94;43.51;99995.97;1716119;83;21319;-77
2023/08/25 02:08:50;;;;;;;6.72;4.50;;;;;;;26.92;43.09;99997.41;1732294;82;21712;-78
2023/08/25 02:11:56;;;;;;;13.98;5.15;;;;;;;26.67;43.16;99990.83;1731529;82;21374;-77
2023/08/25 02:15:03;;;;;;;13.53;5.00;;;;;;;26.78;42.82;99997.80;1732371;82;22551;-77
2023/08/25 02:18:09;;;;;;;12.75;4.58;;;;;;;26.70;42.39;99988.86;1724962;82;21991;-77
2023/08/25 02:21:14;;;;;;;10.23;4.67;;;;;;;26.70;42.06;99990.83;1683237;85;21353;-77
2023/08/25 02:24:20;;;;;;;7.87;4.55;;;;;;;26.67;41.68;99991.39;1712066;83;21329;-78
2023/08/25 02:27:27;;;;;;;8.15;4.40;;;;;;;26.66;41.48;99996.17;1713266;83;21215;-77
2023/08/25 02:30:33;;;;;;;9.68;4.75;;;;;;;26.68;41.25;100000.95;1712961;83;21328;-77
2023/08/25 02:33:41;;;;;;;10.90;4.28;;;;;;;26.67;41.14;99996.44;1692473;83;21896;-77
2023/08/25 02:36:48;;;;;;;8.83;4.35;;;;;;;26.75;40.79;99997.80;1715847;82;21376;-77
2023/08/25 02:39:53;;;;;;;9.25;4.20;;;;;;;26.72;40.61;100000.64;1715169;83;21340;-78
2023/08/25 02:43:02;;;;;;;9.18;4.00;;;;;;;26.58;40.65;100000.98;1713631;83;21325;-77
2023/08/25 02:46:10;;;;;;;8.90;4.65;;;;;;;26.67;40.49;99999.81;1742126;82;21821;-77
2023/08/25 02:49:17;;;;;;;6.05;4.05;;;;;;;26.67;40.43;99999.24;1688822;83;21994;-77
2023/08/25 02:52:23;;;;;;;9.28;4.45;;;;;;;26.54;40.52;100001.31;1711858;83;21678;-77
2023/08/25 02:55:29;;;;;;;7.50;4.25;;;;;;;26.56;40.31;100000.45;1712447;83;21340;-77
2023/08/25 02:58:36;;;;;;;9.63;3.72;;;;;;;26.56;40.18;100006.06;1698550;83;21325;-77
2023/08/25 03:01:41;;;;;;;10.85;3.85;;;;;;;26.52;40.12;99993.73;1706578;84;21966;-77
2023/08/25 03:04:46;;;;;;;7.47;3.95;;;;;;;26.25;40.47;99986.58;1740643;82;21913;-77
2023/08/25 03:07:54;;;;;;;6.45;4.08;;;;;;;26.13;40.73;99984.66;1740261;82;21303;-77
2023/08/25 03:11:01;;;;;;;11.85;3.95;;;;;;;26.05;40.88;99988.05;1712564;83;21300;-78
2023/08/25 03:14:09;;;;;;;7.40;3.80;;;;;;;26.34;40.39;99983.16;1721970;82;21895;-78
2023/08/25 03:17:16;;;;;;;7.03;3.65;;;;;;;26.44;40.22;99969.97;1684258;85;21640;-77
2023/08/25 03:20:23;;;;;;;7.42;3.52;;;;;;;26.43;40.23;99972.47;1712670;83;21920;-77
2023/08/25 03:23:29;;;;;;;13.38;4.10;;;;;;;26.45;40.28;99977.81;1712073;83;21320;-78
2023/08/25 03:26:35;;;;;;;9.90;3.87;;;;;;;26.68;40.00;99981.31;1711464;83;21702;-77
2023/08/25 03:29:40;;;;;;;11.10;4.20;;;;;;;26.34;40.71;99978.95;1682177;83;21311;-77
2023/08/25 03:32:47;;;;;;;12.37;3.98;;;;;;;26.46;40.64;99980.89;1702842;83;21366;-77
2023/08/25 03:35:53;;;;;;;9.58;4.03;;;;;;;26.50;40.51;99977.78;1726791;83;21344;-77
2023/08/25 03:38:59;;;;;;;8.53;4.00;;;;;;;26.53;40.31;99972.97;1729901;81;21311;-77
2023/08/25 03:42:06;;;;;;;10.23;3.90;;;;;;;26.59;40.13;99980.81;1768538;81;21307;-78
2023/08/25 03:45:14;;;;;;;13.80;4.22;;;;;;;26.64;39.96;99970.39;1767382;81;21338;-77
2023/08/25 03:48:22;;;;;;;11.15;3.30;;;;;;;26.52;40.16;99969.06;1767941;81;21324;-77
2023/08/25 03:51:29;;;;;;;6.87;3.85;;;;;;;26.45;40.36;99974.44;1768247;81;21344;-78
2023/08/25 03:54:36;;;;;;;8.00;3.67;;;;;;;26.59;40.25;99979.41;1768360;81;21357;-77
2023/08/25 03:57:42;;;;;;;16.00;3.92;;;;;;;26.74;40.17;99978.73;1768075;81;21304;-77
2023/08/25 04:00:50;;;;;;;13.35;3.95;;;;;;;26.91;39.96;99980.28;1769712;81;21880;-77
2023/08/25 04:03:55;;;;;;;7.47;3.75;;;;;;;27.02;39.86;99979.08;1768535;81;21324;-77
2023/08/25 04:07:03;;;;;;;10.43;3.42;;;;;;;27.24;39.54;99985.10;1768408;81;21953;-77
2023/08/25 04:10:12;;;;;;;10.25;3.70;;;;;;;27.52;39.09;99989.59;1767955;81;21301;-77
2023/08/25 04:13:18;;;;;;;11.22;3.58;;;;;;;27.66;39.06;99991.96;1767567;81;21348;-77
2023/08/25 04:16:25;;;;;;;13.98;3.98;;;;;;;27.57;39.35;99993.77;1769477;81;21340;-77
2023/08/25 04:19:32;;;;;;;6.17;3.33;;;;;;;27.83;39.16;99991.54;1767774;81;21178;-77
2023/08/25 04:22:37;;;;;;;7.97;4.17;;;;;;;27.88;39.30;99985.02;1769172;81;21328;-77
2023/08/25 04:25:43;;;;;;;9.58;3.75;;;;;;;28.24;38.88;99986.25;1769509;81;21312;-77
2023/08/25 04:28:50;;;;;;;6.42;3.08;;;;;;;28.38;38.55;99988.36;1769589;81;21317;-78
2023/08/25 04:31:56;;;;;;;8.65;4.05;;;;;;;28.25;38.65;99987.09;1768172;81;21317;-77
2023/08/25 04:35:04;;;;;;;5.85;3.58;;;;;;;28.37;38.65;99993.16;1769699;81;21307;-77
2023/08/25 04:38:10;;;;;;;7.37;3.70;;;;;;;28.48;38.74;99986.81;1770713;81;21319;-77
2023/08/25 04:41:16;;;;;;;6.03;3.47;;;;;;;28.65;38.48;99995.53;1770750;81;21287;-77
2023/08/25 04:44:22;;;;;;;4.90;3.12;;;;;;;28.77;38.32;100000.15;1772037;79;21316;-77
2023/08/25 04:47:29;;;;;;;6.42;3.10;;;;;;;28.99;38.08;100008.02;1768794;81;21955;-77
2023/08/25 04:50:35;;;;;;;4.25;2.37;;;;;;;29.14;37.68;100007.49;1768993;81;21340;-77
2023/08/25 04:53:42;;;;;;;7.37;3.35;;;;;;;29.20;37.55;100019.77;1768976;81;21332;-77
2023/08/25 04:56:47;;;;;;;8.58;2.72;;;;;;;29.23;37.10;100016.34;1768017;81;21277;-77
2023/08/25 04:59:54;;;;;;;9.98;3.00;;;;;;;29.44;36.85;100018.80;1767807;81;21293;-77
2023/08/25 05:03:02;;;;;;;10.32;2.75;;;;;;;29.48;36.91;100021.27;1777280;79;22551;-78
2023/08/25 05:06:12;;;;;;;6.72;2.80;;;;;;;29.73;36.63;100030.67;1799326;79;21310;-78
2023/08/25 05:09:17;;;;;;;8.00;2.55;;;;;;;29.99;36.07;100032.44;1799337;79;22457;-78
2023/08/25 05:12:23;;;;;;;7.80;2.98;;;;;;;30.11;35.56;100036.72;1769751;79;21320;-78
2023/08/25 05:15:31;;;;;;;4.45;2.55;;;;;;;30.14;35.55;100039.78;1766516;81;21994;-78
2023/08/25 05:18:39;;;;;;;4.05;2.65;;;;;;;30.31;35.04;100035.52;1767310;81;21923;-79
2023/08/25 05:21:45;;;;;;;5.87;2.72;;;;;;;30.46;34.77;100038.83;1767231;81;21320;-79
2023/08/25 05:24:52;;;;;;;7.25;3.08;;;;;;;30.63;33.96;100048.06;1766671;81;21348;-77
2023/08/25 05:27:59;;;;;;;8.88;3.00;;;;;;;30.77;33.51;100045.22;1766064;81;22042;-78
2023/08/25 05:31:08;;;;;;;8.88;2.67;;;;;;;30.83;33.39;100050.20;1767555;81;21310;-77
2023/08/25 05:34:17;;;;;;;5.65;2.15;;;;;;;30.95;33.01;100044.81;1766088;81;21910;-78
2023/08/25 05:37:24;;;;;;;4.58;2.30;;;;;;;30.86;32.86;100060.84;1767401;81;21307;-77
2023/08/25 05:40:30;;;;;;;4.72;2.55;;;;;;;30.87;33.39;100058.30;1774304;80;21319;-77
2023/08/25 05:43:35;;;;;;;6.95;2.65;;;;;;;31.10;32.53;100052.94;1790377;80;21373;-77
2023/08/25 05:46:41;;;;;;;4.85;2.30;;;;;;;31.09;32.41;100056.89;1790078;80;21312;-78
2023/08/25 05:49:46;;;;;;;5.22;2.22;;;;;;;31.33;32.15;100058.02;1790495;80;21358;-78
2023/08/25 05:52:53;;;;;;;5.60;1.92;;;;;;;31.57;32.28;100061.94;1791498;80;21327;-76
2023/08/25 05:56:01;;;;;;;4.05;2.02;;;;;;;31.83;31.97;100066.96;1786494;80;21323;-78
2023/08/25 05:59:10;;;;;;;11.03;2.35;;;;;;;31.91;31.33;100067.59;1781007;80;21611;-78
2023/08/25 06:02:15;;;;;;;5.53;2.20;;;;;;;32.11;30.76;100067.02;1780682;80;21335;-78
2023/08/25 06:05:23;;;;;;;3.47;1.80;;;;;;;32.21;30.50;100076.62;1790683;80;21224;-78
2023/08/25 06:08:29;;;;;;;7.78;1.80;;;;;;;32.38;30.00;100075.07;1791408;80;21350;-78
2023/08/25 06:11:37;;;;;;;2.30;1.40;;;;;;;32.48;29.19;100074.77;1790755;80;21876;-77
2023/08/25 06:14:42;;;;;;;4.55;1.70;;;;;;;32.62;28.47;100076.05;1790280;80;21363;-77
2023/08/25 06:17:48;;;;;;;9.70;1.85;;;;;;;32.61;28.29;100073.80;1791827;80;21848;-77
2023/08/25 06:20:57;;;;;;;4.78;1.45;;;;;;;32.63;28.67;100074.30;1713543;83;21323;-77
2023/08/25 06:24:03;;;;;;;6.28;1.75;;;;;;;32.63;27.41;100076.30;1721048;82;21304;-77
2023/08/25 06:27:10;;;;;;;4.28;1.77;;;;;;;32.52;27.24;100081.44;1713449;83;21268;-77
2023/08/25 06:30:19;;;;;;;11.33;2.83;;;;;;;32.64;27.30;100085.03;1743070;82;21279;-77
2023/08/25 06:33:29;;;;;;;10.48;3.22;;;;;;;32.66;27.11;100086.39;1698781;83;21316;-78
2023/08/25 06:36:32;;;;;;;22.35;3.58;;;;;;;32.78;27.31;100082.31;1682614;85;21372;-77
2023/08/25 06:39:40;;;;;;;13.45;3.33;;;;;;;32.90;26.77;100085.97;1711062;83;21350;-77
2023/08/25 06:42:47;;;;;;;12.35;3.15;;;;;;;32.99;26.71;100095.89;1709013;81;21377;-77
2023/08/25 06:45:53;;;;;;;11.50;2.50;;;;;;;32.96;26.76;100088.05;1722977;83;21355;-77
2023/08/25 06:48:59;;;;;;;9.05;2.52;;;;;;;32.83;26.79;100096.31;1690195;84;21718;-77
2023/08/25 06:52:06;;;;;;;7.65;2.60;;;;;;;33.29;25.98;100092.06;1681229;85;21362;-76
2023/08/25 06:55:11;;;;;;;10.58;2.83;;;;;;;32.98;26.29;100087.98;1711432;83;21359;-77
2023/08/25 06:58:18;;;;;;;8.78;2.45;;;;;;;32.88;26.10;100094.49;1683397;85;21877;-77
2023/08/25 07:01:24;;;;;;;10.65;2.50;;;;;;;32.89;26.50;100098.98;1709399;84;21307;-77
2023/08/25 07:04:30;;;;;;;4.28;2.08;;;;;;;32.78;26.54;100090.81;1731606;82;21291;-77
2023/08/25 07:07:37;;;;;;;8.38;2.25;;;;;;;32.76;26.50;100087.48;1709644;84;21303;-77
2023/08/25 07:10:44;;;;;;;8.13;2.33;;;;;;;32.72;26.12;100092.14;1723159;83;21324;-77
2023/08/25 07:13:49;;;;;;;7.28;2.17;;;;;;;32.80;26.21;100093.33;1708396;84;21314;-77
2023/08/25 07:16:55;;;;;;;7.45;2.12;;;;;;;32.86;26.11;100081.26;1721681;83;21372;-77
2023/08/25 07:20:08;;;;;;;7.70;2.00;;;;;;;32.96;25.92;100095.95;1709626;84;21326;-77
2023/08/25 07:23:10;;;;;;;5.03;2.30;;;;;;;33.25;25.35;100095.30;1722784;83;21340;-77
2023/08/25 07:26:16;;;;;;;9.83;2.37;;;;;;;33.20;24.71;100083.31;1708627;84;22484;-77
2023/08/25 07:29:22;;;;;;;9.08;2.10;;;;;;;33.30;25.10;100090.05;1722387;83;21331;-77
2023/08/25 07:32:29;;;;;;;14.00;2.30;;;;;;;33.31;24.89;100081.23;1709245;84;21299;-78
2023/08/25 07:35:38;;;;;;;5.12;2.05;;;;;;;33.30;25.36;100085.22;1722620;83;21344;-77
2023/08/25 07:38:43;;;;;;;8.05;2.55;;;;;;;33.14;25.34;100084.65;1708320;83;21897;-77
2023/08/25 07:41:49;;;;;;;8.70;2.45;;;;;;;33.43;24.82;100080.58;1716602;83;21641;-77
2023/08/25 07:44:55;;;;;;;6.42;2.20;;;;;;;33.32;25.15;100089.98;1767783;81;21373;-77
2023/08/25 07:48:01;;;;;;;5.97;1.92;;;;;;;33.55;25.17;100090.67;1768001;81;21316;-77
2023/08/25 07:51:07;;;;;;;5.00;2.02;;;;;;;33.44;25.01;100097.83;1767918;81;21862;-77
2023/08/25 07:54:14;;;;;;;6.45;2.67;;;;;;;33.41;25.00;100098.48;1767651;81;21327;-77
2023/08/25 07:57:20;;;;;;;7.45;3.02;;;;;;;33.44;25.33;100101.25;1795884;79;21378;-77
2023/08/25 08:00:27;;;;;;;6.10;2.45;;;;;;;33.71;25.46;100092.38;1799147;79;21308;-77
2023/08/25 08:03:35;;;;;;;8.68;3.12;;;;;;;33.53;24.99;100101.49;1782292;79;21299;-77
2023/08/25 08:06:40;;;;;;;9.30;3.05;;;;;;;33.75;25.11;100100.47;1767055;81;21597;-77
2023/08/25 08:09:46;;;;;;;6.40;2.55;;;;;;;33.87;24.54;100093.26;1767600;81;21324;-77
2023/08/25 08:12:52;;;;;;;6.85;2.85;;;;;;;33.89;23.81;100093.19;1767817;81;21570;-77
2023/08/25 08:24:21;;;;;;;7.22;3.85;;;;;;;34.02;24.17;100096.44;1796952;79;21283;-79
2023/08/25 08:27:29;;;;;;;10.65;4.37;;;;;;;34.15;24.71;100100.80;1730245;82;21331;-77
2023/08/25 08:30:43;;;;;;;8.78;4.05;;;;;;;34.23;23.98;100100.77;1801145;79;21268;-77
2023/08/25 08:34:17;;;;;;;8.78;3.70;;;;;;;34.05;23.64;100096.33;1709640;82;21167;-77
2023/08/25 08:37:35;;;;;;;14.07;3.95;;;;;;;34.00;23.73;100097.93;1766655;81;21611;-77
2023/08/25 08:45:03;;;;;;;7.72;2.98;;;;;;;33.81;24.36;100093.44;1762778;80;21569;-77
2023/08/25 08:48:16;;;;;;;8.00;2.22;;;;;;;33.80;24.02;100087.53;1753958;81;21881;-77
2023/08/25 08:51:30;;;;;;;7.12;2.02;;;;;;;33.80;24.13;100087.53;1738386;82;21205;-77
2023/08/25 08:55:04;;;;;;;6.08;2.08;;;;;;;33.76;23.84;100084.28;1686787;84;21350;-77
2023/08/25 08:58:24;;;;;;;5.58;1.82;;;;;;;33.90;23.79;100086.92;1729916;81;21196;-76
2023/08/25 09:01:59;;;;;;;3.67;1.62;;;;;;;33.91;23.55;100082.31;1725588;82;21207;-77
2023/08/25 09:05:22;;;;;;;4.12;1.80;;;;;;;33.97;24.24;100078.73;1742355;81;21330;-77
2023/08/25 09:08:44;;;;;;;3.83;2.02;;;;;;;34.14;23.46;100088.62;1736631;81;21270;-78
2023/08/25 09:12:21;;;;;;;2.62;1.57;;;;;;;34.21;23.78;100096.03;1736106;81;21232;-78
2023/08/25 09:15:49;;;;;;;5.30;2.47;;;;;;;34.17;23.55;100096.46;1735122;82;21303;-78
2023/08/25 09:19:24;;;;;;;7.83;2.42;;;;;;;34.16;23.06;100092.52;1736627;81;21234;-77
2023/08/25 09:23:03;;;;;;;5.60;1.70;;;;;;;34.20;22.37;100102.86;1736889;82;21718;-77
2023/08/25 09:26:38;;;;;;;3.67;1.67;;;;;;;34.22;21.79;100092.02;1736156;82;21333;-78
2023/08/25 09:29:59;;;;;;;9.20;2.08;;;;;;;34.25;21.76;100088.51;1730282;82;22299;-77
2023/08/25 09:33:21;;;;;;;3.55;1.60;;;;;;;34.40;21.83;100088.52;1737760;81;21520;-78
2023/08/25 09:36:42;;;;;;;7.85;2.58;;;;;;;34.31;20.82;100087.73;1736765;82;22295;-77
2023/08/25 09:39:54;;;;;;;2.58;1.70;;;;;;;34.22;20.75;100089.17;1726196;82;22460;-77
2023/08/25 09:43:20;;;;;;;8.15;1.85;;;;;;;34.13;21.08;100090.39;1733043;81;21822;-77
2023/08/25 09:46:53;;;;;;;2.50;1.70;;;;;;;34.10;21.65;100095.31;1754742;80;21340;-78
2023/08/25 09:50:23;;;;;;;4.95;1.75;;;;;;;34.29;21.78;100101.41;1768377;80;21797;-78
2023/08/25 09:53:56;;;;;;;;;;;;;;;34.25;21.48;100093.33;1769053;81;21210;-78
2023/08/25 09:57:10;;;;;;;5.97;1.65;;;;;;;34.39;20.35;100096.77;1765003;81;20494;-78
2023/08/25 10:00:26;;;;;;;2.45;1.70;;;;;;;34.41;20.69;100091.59;1768153;81;21201;-78
2023/08/25 10:04:04;;;;;;;6.97;1.95;;;;;;;34.21;20.81;100086.10;1753170;81;21303;-78
2023/08/25 10:07:17;;;;;;;3.33;1.57;;;;;;;34.38;20.85;100080.09;1732248;81;21286;-77
2023/08/25 10:10:51;;;;;;;4.28;2.27;;;;;;;34.47;20.80;100070.38;1767939;81;21294;-77
2023/08/25 10:14:29;;;;;;;8.35;3.10;;;;;;;34.54;20.40;100075.54;1768351;81;21202;-77
2023/08/25 10:18:22;;;;;;;4.83;2.60;;;;;;;34.50;19.94;100073.97;1767117;81;21313;-78
2023/08/25 10:21:54;;;;;;;4.00;2.60;;;;;;;34.55;20.46;100060.16;1768768;81;22480;-77
2023/08/25 10:25:33;;;;;;;6.97;3.00;;;;;;;34.67;20.15;100064.49;1768177;81;21214;-78
2023/08/25 10:29:04;;;;;;;7.00;2.90;;;;;;;34.66;20.21;100059.99;1826826;76;22256;-78
2023/08/25 10:32:18;;;;;;;5.42;2.95;;;;;;;34.50;20.18;100065.45;1765341;79;21859;-78
2023/08/25 10:36:04;;;;;;;9.83;3.30;;;;;;;34.46;20.11;100063.05;1772676;77;21377;-78
2023/08/25 10:39:26;;;;;;;6.62;3.25;;;;;;;34.56;20.34;100043.36;1769652;81;21286;-77
2023/08/25 10:43:07;;;;;;;10.13;4.10;;;;;;;34.79;20.96;100053.82;1756359;79;21782;-77
2023/08/25 10:46:41;;;;;;;10.20;3.95;;;;;;;34.89;21.14;100051.98;1736070;81;21196;-77
2023/08/25 10:50:19;;;;;;;11.63;3.10;;;;;;;34.82;21.75;100055.39;1763450;81;21211;-76
2023/08/25 10:54:07;;;;;;;7.97;3.00;;;;;;;34.74;21.27;100061.13;1766983;80;21762;-77
2023/08/25 10:57:57;;;;;;;14.25;4.10;;;;;;;34.71;21.43;100049.84;1772215;80;21352;-77
2023/08/25 11:02:00;;;;;;;8.25;3.60;;;;;;;34.69;21.17;100055.06;1771464;80;21207;-79
2023/08/25 11:05:50;;;;;;;7.50;3.10;;;;;;;34.69;21.76;100050.80;1750363;81;21184;-77
2023/08/25 11:09:43;;;;;;;6.75;3.02;;;;;;;34.76;21.94;100042.55;1665253;85;21637;-76
2023/08/25 11:13:16;;;;;;;8.70;3.50;;;;;;;34.87;21.48;100035.06;1696107;83;21235;-76
2023/08/25 11:16:49;;;;;;;10.60;3.45;;;;;;;35.05;21.50;100043.69;1698727;83;21408;-76
2023/08/25 11:20:41;;;;;;;10.10;3.10;;;;;;;34.69;21.59;100022.39;1693735;83;22036;-77
2023/08/25 11:24:18;;;;;;;11.00;3.62;;;;;;;34.89;21.70;100028.43;1701171;83;21314;-76
2023/08/25 11:28:12;;;;;;;8.88;3.17;;;;;;;34.70;21.79;100016.95;1716426;83;21782;-76
2023/08/25 11:32:02;;;;;;;10.00;2.25;;;;;;;34.48;21.16;100024.36;1724453;83;21248;-76
2023/08/25 11:35:30;;;;;;;6.97;2.45;;;;;;;34.78;20.98;100028.84;1714303;83;21347;-76
2023/08/25 11:38:58;;;;;;;3.37;2.12;;;;;;;34.87;21.42;100046.42;1764384;80;21240;-77
2023/08/25 11:42:26;;;;;;;4.08;2.20;;;;;;;34.95;21.01;100046.33;1776137;79;21893;-78
2023/08/25 11:45:58;;;;;;;6.70;2.00;;;;;;;35.02;20.77;100040.14;1680420;85;21343;-77
2023/08/25 11:49:33;;;;;;;4.75;1.70;;;;;;;35.18;20.52;100041.16;1682580;83;21767;-77
2023/08/25 11:52:59;;;;;;;4.97;1.70;;;;;;;35.05;20.16;100046.53;1710177;81;21347;-77
2023/08/25 11:56:39;;;;;;;8.05;2.08;;;;;;;35.11;20.62;100052.86;1710051;83;21631;-77
2023/08/25 12:00:28;;;;;;;3.37;1.90;;;;;;;34.92;19.38;100055.56;1712341;83;21284;-77
2023/08/25 12:03:47;;;;;;;6.28;1.80;;;;;;;34.95;20.08;100046.92;1694938;83;21860;-77
2023/08/25 12:07:04;;;;;;;4.65;2.12;;;;;;;35.07;19.68;100049.88;1682209;84;21371;-77
2023/08/25 12:10:44;;;;;;;8.35;1.62;;;;;;;35.14;19.59;100054.40;1683100;84;21395;-77
2023/08/25 12:14:15;;;;;;;4.80;2.00;;;;;;;35.24;19.81;100050.30;1691149;84;21520;-77
2023/08/25 12:17:54;;;;;;;5.87;1.50;;;;;;;35.23;19.98;100045.80;1693345;84;21218;-77
2023/08/25 12:29:15;;;;;;;2.83;1.60;;;;;;;34.88;20.85;100043.23;1674250;80;21371;-76
2023/08/25 12:32:26;;;;;;;3.33;1.60;;;;;;;34.65;19.94;100043.31;1768999;80;21922;-76
2023/08/25 12:39:29;;;;;;;9.00;1.90;;;;;;;34.65;20.63;100054.67;1783352;79;21228;-77
2023/08/25 12:42:55;;;;;;;2.40;1.50;;;;;;;34.62;21.18;100043.39;1772812;80;21346;-76
2023/08/25 12:46:10;;;;;;;4.90;2.15;;;;;;;34.67;20.97;100041.77;1778447;80;21260;-76
2023/08/25 12:49:35;;;;;;;3.12;1.55;;;;;;;34.72;21.08;100047.84;1768716;79;21355;-76
2023/08/25 12:53:19;;;;;;;6.30;1.57;;;;;;;34.56;21.18;100048.45;1706941;83;21392;-77
2023/08/25 12:57:09;;;;;;;4.12;1.90;;;;;;;34.57;21.33;100057.20;1706731;82;21579;-76
2023/08/25 13:00:21;;;;;;;12.47;1.95;;;;;;;34.70;21.51;100050.20;1774153;80;21316;-76
2023/08/25 13:03:38;;;;;;;4.70;1.90;;;;;;;34.66;22.04;100041.53;1772466;80;21599;-76
2023/08/25 13:06:55;;;;;;;18.70;2.27;;;;;;;34.54;21.67;100050.81;1717138;83;21204;-76
2023/08/25 13:10:22;;;;;;;9.85;2.10;;;;;;;34.53;22.29;100050.55;1714332;82;21332;-76
2023/08/25 13:13:57;;;;;;;9.25;2.00;;;;;;;34.60;22.11;100057.71;1779035;79;21247;-76
2023/08/25 13:17:07;;;;;;;14.05;2.00;;;;;;;34.58;22.20;100059.45;1715846;83;21387;-76
2023/08/25 13:20:28;;;;;;;5.47;1.90;;;;;;;34.54;22.23;100055.66;1742814;82;21328;-76
2023/08/25 13:23:58;;;;;;;5.72;1.87;;;;;;;34.38;22.10;100060.22;1720162;82;21224;-76
2023/08/25 13:27:12;;;;;;;4.75;1.65;;;;;;;34.50;22.31;100050.42;1786805;79;21290;-76
2023/08/25 13:30:54;;;;;;;7.50;2.00;;;;;;;34.55;22.35;100052.47;1716671;83;21249;-76
2023/08/25 13:41:16;;;;;;;11.05;1.72;;;;;;;34.54;21.71;100055.66;1693546;84;22517;-76
2023/08/25 13:44:22;;;;;;;3.15;1.70;;;;;;;34.37;21.80;100051.45;1758371;80;21336;-76
2023/08/25 13:47:33;;;;;;;12.10;2.20;;;;;;;34.30;21.82;100048.58;1700622;84;21933;-77
2023/08/25 13:51:07;;;;;;;5.92;1.87;;;;;;;34.44;22.38;100058.84;1763746;80;21350;-76
2023/08/25 13:55:02;;;;;;;3.02;1.30;;;;;;;34.53;22.14;100052.55;1766005;80;21172;-76
2023/08/25 13:58:08;;;;;;;3.83;1.82;;;;;;;34.52;22.38;100050.89;1762345;80;22120;-76
2023/08/25 14:01:16;;;;;;;2.67;1.62;;;;;;;34.49;22.25;100044.47;1756442;80;21346;-77
2023/08/25 14:04:23;;;;;;;8.28;1.65;;;;;;;34.39;22.63;100034.91;1771453;79;21324;-76
2023/08/25 14:07:28;;;;;;;5.45;1.60;;;;;;;34.41;22.43;100029.73;1774565;79;21359;-76
2023/08/25 14:22:24;;;;;;;4.67;1.70;;;;;;;34.44;22.47;100037.54;1714482;83;21196;-76
2023/08/25 14:40:42;;;;;;;5.25;2.12;;;;;;;34.26;22.78;100034.82;1682673;84;21300;-76
2023/08/25 15:10:16;;;;;;;6.08;1.90;;;;;;;33.88;23.41;100039.60;1740981;82;21288;-76
2023/08/25 15:28:35;;;;;;;7.12;2.22;;;;;;;33.66;23.88;100041.52;1745581;81;21235;-78
2023/08/25 15:31:47;;;;;;;5.08;2.08;;;;;;;33.67;23.92;100046.02;1731212;82;21358;-77
2023/08/25 15:38:43;;;;;;;9.15;2.30;;;;;;;33.57;24.54;100038.70;1714705;82;21253;-77
2023/08/25 15:41:49;;;;;;;9.33;2.45;;;;;;;33.50;24.66;100044.63;1723146;82;21352;-77
2023/08/25 15:44:54;;;;;;;3.85;2.15;;;;;;;33.42;24.64;100041.21;1722572;82;21330;-77
2023/08/25 15:48:00;;;;;;;5.60;2.05;;;;;;;33.38;24.44;100038.80;1709183;83;21317;-77
2023/08/25 15:51:06;;;;;;;5.80;2.87;;;;;;;33.42;24.41;100041.21;1714386;82;22026;-76
2023/08/25 15:54:12;;;;;;;3.72;2.35;;;;;;;33.43;24.53;100046.56;1715568;82;21380;-77
2023/08/25 15:57:17;;;;;;;5.97;2.65;;;;;;;33.33;24.62;100039.21;1721178;83;21372;-77
2023/08/25 16:00:25;;;;;;;8.90;2.67;;;;;;;33.30;24.67;100048.38;1714715;82;22318;-77
2023/08/25 16:03:31;;;;;;;10.20;2.60;;;;;;;33.13;24.96;100047.58;1711455;82;21376;-76
2023/08/25 16:06:38;;;;;;;5.25;2.30;;;;;;;33.05;25.03;100049.23;1698083;83;21352;-76
2023/08/25 16:09:45;;;;;;;8.68;2.60;;;;;;;33.04;25.03;100045.56;1720164;81;21344;-77
2023/08/25 16:16:04;;;;;;;7.55;2.80;;;;;;;32.97;25.12;100042.97;1721894;83;21393;-77
2023/08/25 16:19:11;;;;;;;9.28;2.98;;;;;;;32.89;25.20;100049.42;1724539;82;21341;-77
2023/08/25 16:22:17;;;;;;;12.07;2.70;;;;;;;32.81;25.26;100047.68;1715520;82;21381;-77
2023/08/25 16:25:23;;;;;;;5.17;2.77;;;;;;;32.67;25.48;100047.00;1721719;82;21911;-77
2023/08/25 16:32:13;;;;;;;9.43;2.60;;;;;;;32.56;26.29;100047.90;1720046;82;21182;-77
2023/08/25 16:35:20;;;;;;;5.22;2.42;;;;;;;32.26;26.46;100050.18;1723879;82;21329;-77
2023/08/25 16:38:27;;;;;;;14.80;2.77;;;;;;;32.20;26.61;100055.73;1716375;82;21317;-76
2023/08/25 16:41:33;;;;;;;8.53;2.80;;;;;;;32.11;26.52;100057.11;1719956;82;21373;-77
2023/08/25 16:44:39;;;;;;;11.35;2.62;;;;;;;32.00;26.60;100058.58;1722118;83;21376;-76
2023/08/25 16:47:46;;;;;;;6.15;2.83;;;;;;;31.93;26.80;100061.85;1715491;82;21928;-76
2023/08/25 16:57:52;;;;;;;12.28;2.90;;;;;;;31.49;28.16;100066.97;1722624;82;21195;-77